Terminal Aerodrome Forecast
Issued by NWS Central Illinois

Home | Current Version | Previous Version | Text Only | Print | Product List | Glossary On
Versions: 1 2 3 4 5 6 7 8 9 10 11 12 13 14 15
000
FTUS43 KILX 240520
TAFPIA
TAF
KPIA 240520Z 2406/2506 17015KT P6SM SCT120 WS018/21055KT
     FM241300 18015G25KT P6SM SCT080 BKN250
     FM241900 20013G25KT P6SM SCT040
     FM250100 17010KT P6SM -SHRA VCTS SCT012 OVC025CB=

USA.gov is the U.S. government's official web portal to all federal, state and local government web resources and services.